createdAt,value
2018-04-22T00:00:10.392Z,956.93
2018-04-22T00:01:10.382Z,956.91
2018-04-22T00:02:10.375Z,956.89
2018-04-22T00:03:10.376Z,956.89
2018-04-22T00:04:10.354Z,956.9
2018-04-22T00:05:10.344Z,956.88
2018-04-22T00:06:10.341Z,956.9
2018-04-22T00:07:10.327Z,956.89
2018-04-22T00:08:10.319Z,956.87
2018-04-22T00:09:10.310Z,956.86
2018-04-22T00:10:10.300Z,956.85
2018-04-22T00:11:10.291Z,956.86
2018-04-22T00:12:10.283Z,956.87
2018-04-22T00:13:10.273Z,956.83
2018-04-22T00:14:10.268Z,956.81
2018-04-22T00:15:10.255Z,956.83
2018-04-22T00:16:10.247Z,956.86
2018-04-22T00:17:10.237Z,956.79
2018-04-22T00:18:10.229Z,956.82
2018-04-22T00:19:10.219Z,956.78
2018-04-22T00:20:10.210Z,956.8
2018-04-22T00:21:10.200Z,956.81
2018-04-22T00:22:10.192Z,956.79
2018-04-22T00:23:10.182Z,956.78
2018-04-22T00:24:10.172Z,956.8
2018-04-22T00:25:10.166Z,956.77
2018-04-22T00:26:10.156Z,956.75
2018-04-22T00:27:10.148Z,956.73
2018-04-22T00:28:10.135Z,956.74
2018-04-22T00:29:10.127Z,956.72
2018-04-22T00:30:10.118Z,956.71
2018-04-22T00:31:10.108Z,956.72
2018-04-22T00:32:10.106Z,956.72
2018-04-22T00:33:10.090Z,956.71
2018-04-22T00:34:10.082Z,956.7
2018-04-22T00:35:10.072Z,956.67
2018-04-22T00:36:10.061Z,956.68
2018-04-22T00:37:10.055Z,956.66
2018-04-22T00:38:10.044Z,956.66
2018-04-22T00:39:10.033Z,956.68
2018-04-22T00:40:10.024Z,956.64
2018-04-22T00:41:10.014Z,956.61
2018-04-22T00:42:10.007Z,956.59
2018-04-22T00:43:09.999Z,956.59
2018-04-22T00:44:09.987Z,956.57
2018-04-22T00:45:09.978Z,956.56
2018-04-22T00:46:09.969Z,956.52
2018-04-22T00:47:09.959Z,956.55
2018-04-22T00:48:09.968Z,956.55
2018-04-22T00:49:09.942Z,956.56
2018-04-22T00:50:09.936Z,956.53
2018-04-22T00:51:09.923Z,956.52
2018-04-22T00:52:09.914Z,956.5
2018-04-22T00:53:09.904Z,956.47
2018-04-22T00:54:09.897Z,956.46
2018-04-22T00:55:09.887Z,956.44
2018-04-22T00:56:09.878Z,956.42
2018-04-22T00:57:09.867Z,956.39
2018-04-22T00:58:09.861Z,956.37
2018-04-22T00:59:09.848Z,956.35
2018-04-22T01:00:09.840Z,956.36
2018-04-22T01:01:09.833Z,956.36
2018-04-22T01:02:09.819Z,956.33
2018-04-22T01:03:09.811Z,956.35
2018-04-22T01:04:09.801Z,956.35
2018-04-22T01:05:09.791Z,956.32
2018-04-22T01:06:09.782Z,956.32
2018-04-22T01:07:09.772Z,956.33
2018-04-22T01:08:09.762Z,956.32
2018-04-22T01:09:09.765Z,956.32
2018-04-22T01:10:09.745Z,956.31
2018-04-22T01:11:09.736Z,956.33
2018-04-22T01:12:09.726Z,956.29
2018-04-22T01:13:09.724Z,956.33
2018-04-22T01:14:09.707Z,956.34
2018-04-22T01:15:09.699Z,956.33
2018-04-22T01:16:09.687Z,956.33
2018-04-22T01:17:09.679Z,956.32
2018-04-22T01:18:09.671Z,956.3
2018-04-22T01:19:09.658Z,956.29
2018-04-22T01:20:09.653Z,956.28
2018-04-22T01:21:09.641Z,956.25
2018-04-22T01:22:09.631Z,956.26
2018-04-22T01:23:09.622Z,956.22
2018-04-22T01:24:09.621Z,956.23
2018-04-22T01:25:09.605Z,956.21
2018-04-22T01:26:09.594Z,956.2
2018-04-22T01:27:09.586Z,956.2
2018-04-22T01:28:09.576Z,956.21
2018-04-22T01:29:09.568Z,956.2
2018-04-22T01:30:09.557Z,956.18
2018-04-22T01:31:09.551Z,956.21
2018-04-22T01:32:09.540Z,956.19
2018-04-22T01:33:09.529Z,956.2
2018-04-22T01:34:09.520Z,956.18
2018-04-22T01:35:09.511Z,956.22
2018-04-22T01:36:09.501Z,956.15
2018-04-22T01:37:09.493Z,956.14
2018-04-22T01:38:09.483Z,956.17
2018-04-22T01:39:09.473Z,956.19
2018-04-22T01:40:09.465Z,956.18
2018-04-22T01:41:09.455Z,956.18
2018-04-22T01:42:09.445Z,956.16
2018-04-22T01:43:09.438Z,956.17
2018-04-22T01:44:09.426Z,956.17
2018-04-22T01:45:09.416Z,956.16
2018-04-22T01:46:09.413Z,956.16
2018-04-22T01:47:09.396Z,956.17
2018-04-22T01:48:09.386Z,956.16
2018-04-22T01:49:09.377Z,956.18
2018-04-22T01:50:09.368Z,956.15
2018-04-22T01:51:09.357Z,956.14
2018-04-22T01:52:09.347Z,956.1
2018-04-22T01:53:09.338Z,956.11
2018-04-22T01:54:09.328Z,956.11
2018-04-22T01:55:09.318Z,956.14
2018-04-22T01:56:09.308Z,956.13
2018-04-22T01:57:09.298Z,956.14
2018-04-22T01:58:09.289Z,956.16
2018-04-22T01:59:09.279Z,956.1
2018-04-22T02:00:09.270Z,956.14
2018-04-22T02:01:09.258Z,956.11
2018-04-22T02:02:09.250Z,956.06
2018-04-22T02:03:09.240Z,956.12
2018-04-22T02:04:09.230Z,956.12
2018-04-22T02:05:09.219Z,956.09
2018-04-22T02:06:09.209Z,956.1
2018-04-22T02:07:09.198Z,956.07
2018-04-22T02:08:09.191Z,956.11
2018-04-22T02:09:09.181Z,956.06
2018-04-22T02:10:09.169Z,956.07
2018-04-22T02:11:09.160Z,956.09
2018-04-22T02:12:09.150Z,956.05
2018-04-22T02:13:09.143Z,956.01
2018-04-22T02:14:09.129Z,956.02
2018-04-22T02:15:09.120Z,955.96
2018-04-22T02:16:09.113Z,955.99
2018-04-22T02:17:09.100Z,955.98
2018-04-22T02:18:09.092Z,955.98
2018-04-22T02:19:09.081Z,955.94
2018-04-22T02:20:09.073Z,955.96
2018-04-22T02:21:09.060Z,955.95
2018-04-22T02:22:09.052Z,955.94
2018-04-22T02:23:09.041Z,955.93
2018-04-22T02:24:09.032Z,955.93
2018-04-22T02:25:09.022Z,955.91
2018-04-22T02:26:09.011Z,955.88
2018-04-22T02:27:09.013Z,955.88
2018-04-22T02:28:08.994Z,955.87
2018-04-22T02:29:08.982Z,955.84
2018-04-22T02:30:08.971Z,955.84
2018-04-22T02:31:08.963Z,955.85
2018-04-22T02:32:08.954Z,955.89
2018-04-22T02:33:08.942Z,955.86
2018-04-22T02:34:08.932Z,955.83
2018-04-22T02:35:08.922Z,955.84
2018-04-22T02:36:08.912Z,955.82
2018-04-22T02:37:08.901Z,955.83
2018-04-22T02:38:08.893Z,955.84
2018-04-22T02:39:08.882Z,955.79
2018-04-22T02:40:08.871Z,955.77
2018-04-22T02:41:08.863Z,955.77
2018-04-22T02:42:08.854Z,955.76
2018-04-22T02:43:08.841Z,955.77
2018-04-22T02:44:08.832Z,955.78
2018-04-22T02:45:08.828Z,955.77
2018-04-22T02:46:08.811Z,955.79
2018-04-22T02:47:08.803Z,955.78
2018-04-22T02:48:08.797Z,955.75
2018-04-22T02:49:08.781Z,955.78
2018-04-22T02:50:08.775Z,955.79
2018-04-22T02:51:08.769Z,955.78
2018-04-22T02:52:08.753Z,955.78
2018-04-22T02:53:08.741Z,955.75
2018-04-22T02:54:08.731Z,955.7
2018-04-22T02:55:08.721Z,955.69
2018-04-22T02:56:08.711Z,955.67
2018-04-22T02:57:08.700Z,955.62
2018-04-22T02:58:08.691Z,955.63
2018-04-22T02:59:08.680Z,955.64
2018-04-22T03:00:08.676Z,955.65
2018-04-22T03:01:08.662Z,955.62
2018-04-22T03:02:08.659Z,955.61
2018-04-22T03:03:08.640Z,955.59
2018-04-22T03:04:08.632Z,955.62
2018-04-22T03:05:08.620Z,955.63
2018-04-22T03:06:08.612Z,955.64
2018-04-22T03:07:08.601Z,955.59
2018-04-22T03:08:08.591Z,955.62
2018-04-22T03:09:08.580Z,955.58
2018-04-22T03:10:08.572Z,955.55
2018-04-22T03:11:08.562Z,955.57
2018-04-22T03:12:08.549Z,955.58
2018-04-22T03:13:08.540Z,955.56
2018-04-22T03:14:08.537Z,955.56
2018-04-22T03:15:08.522Z,955.6
2018-04-22T03:16:08.540Z,955.6
2018-04-22T03:17:08.503Z,955.62
2018-04-22T03:18:08.495Z,955.61
2018-04-22T03:19:08.481Z,955.57
2018-04-22T03:20:08.470Z,955.59
2018-04-22T03:21:08.459Z,955.57
2018-04-22T03:22:08.450Z,955.54
2018-04-22T03:23:08.440Z,955.54
2018-04-22T03:24:08.435Z,955.5
2018-04-22T03:25:08.420Z,955.5
2018-04-22T03:26:08.409Z,955.53
2018-04-22T03:27:08.398Z,955.53
2018-04-22T03:28:08.390Z,955.53
2018-04-22T03:29:08.381Z,955.48
2018-04-22T03:30:08.375Z,955.51
2018-04-22T03:31:08.360Z,955.51
2018-04-22T03:32:08.350Z,955.54
2018-04-22T03:33:08.339Z,955.47
2018-04-22T03:34:08.331Z,955.48
2018-04-22T03:35:08.320Z,955.45
2018-04-22T03:36:08.309Z,955.47
2018-04-22T03:37:08.300Z,955.48
2018-04-22T03:38:08.300Z,955.48
2018-04-22T03:39:08.280Z,955.46
2018-04-22T03:40:08.271Z,955.45
2018-04-22T03:41:08.258Z,955.47
2018-04-22T03:42:08.250Z,955.48
2018-04-22T03:43:08.241Z,955.49
2018-04-22T03:44:08.229Z,955.47
2018-04-22T03:45:08.221Z,955.45
2018-04-22T03:46:08.210Z,955.4
2018-04-22T03:47:08.200Z,955.42
2018-04-22T03:48:08.191Z,955.4
2018-04-22T03:49:08.181Z,955.4
2018-04-22T03:50:08.172Z,955.41
2018-04-22T03:51:08.161Z,955.36
2018-04-22T03:52:08.151Z,955.41
2018-04-22T03:53:08.208Z,955.4
2018-04-22T03:54:08.137Z,955.42
2018-04-22T03:55:08.122Z,955.44
2018-04-22T03:56:08.110Z,955.44
2018-04-22T03:57:08.100Z,955.43
2018-04-22T03:58:08.092Z,955.45
2018-04-22T03:59:08.083Z,955.42
2018-04-22T04:00:08.071Z,955.42
2018-04-22T04:01:08.117Z,955.41
2018-04-22T04:02:08.050Z,955.43
2018-04-22T04:03:08.080Z,955.42
2018-04-22T04:04:08.032Z,955.44
2018-04-22T04:05:08.041Z,955.45
2018-04-22T04:06:08.012Z,955.42
2018-04-22T04:07:08.002Z,955.45
2018-04-22T04:08:07.994Z,955.5
2018-04-22T04:09:07.983Z,955.46
2018-04-22T04:10:07.977Z,955.48
2018-04-22T04:11:07.961Z,955.48
2018-04-22T04:12:07.952Z,955.45
2018-04-22T04:13:07.943Z,955.44
2018-04-22T04:14:07.932Z,955.44
2018-04-22T04:15:07.923Z,955.47
2018-04-22T04:16:07.915Z,955.43
2018-04-22T04:17:07.904Z,955.45
2018-04-22T04:18:07.893Z,955.43
2018-04-22T04:19:07.883Z,955.4
2018-04-22T04:20:07.874Z,955.45
2018-04-22T04:21:07.865Z,955.38
2018-04-22T04:22:07.853Z,955.44
2018-04-22T04:23:07.844Z,955.4
2018-04-22T04:24:07.835Z,955.37
2018-04-22T04:25:07.824Z,955.37
2018-04-22T04:26:07.824Z,955.4
2018-04-22T04:27:07.806Z,955.39
2018-04-22T04:28:07.795Z,955.39
2018-04-22T04:29:07.785Z,955.37
2018-04-22T04:30:07.775Z,955.37
2018-04-22T04:31:07.767Z,955.36
2018-04-22T04:32:07.756Z,955.32
2018-04-22T04:33:07.748Z,955.31
2018-04-22T04:34:07.736Z,955.3
2018-04-22T04:35:07.729Z,955.36
2018-04-22T04:36:07.829Z,955.37
2018-04-22T04:37:07.709Z,955.36
2018-04-22T04:38:07.698Z,955.39
2018-04-22T04:39:07.690Z,955.39
2018-04-22T04:40:07.736Z,955.39
2018-04-22T04:41:07.701Z,955.34
2018-04-22T04:42:07.696Z,955.39
2018-04-22T04:43:07.707Z,955.39
2018-04-22T04:44:07.685Z,955.38
2018-04-22T04:45:07.695Z,955.38
2018-04-22T04:46:07.667Z,955.39
2018-04-22T04:47:07.632Z,955.34
2018-04-22T04:48:07.649Z,955.36
2018-04-22T04:49:07.622Z,955.32
2018-04-22T04:50:07.628Z,955.35
2018-04-22T04:51:07.639Z,955.28
2018-04-22T04:52:07.612Z,955.34
2018-04-22T04:53:07.609Z,955.3
2018-04-22T04:54:07.606Z,955.29
2018-04-22T04:55:07.538Z,955.3
2018-04-22T04:56:07.588Z,955.3
2018-04-22T04:57:07.559Z,955.32
2018-04-22T04:58:07.553Z,955.33
2018-04-22T04:59:07.500Z,955.31
2018-04-22T05:00:07.490Z,955.34
2018-04-22T05:01:07.482Z,955.32
2018-04-22T05:02:07.472Z,955.37
2018-04-22T05:03:07.462Z,955.35
2018-04-22T05:04:07.458Z,955.36
2018-04-22T05:05:07.444Z,955.33
2018-04-22T05:06:07.436Z,955.29
2018-04-22T05:07:07.432Z,955.3
2018-04-22T05:08:07.418Z,955.29
2018-04-22T05:09:07.409Z,955.31
2018-04-22T05:10:07.403Z,955.3
2018-04-22T05:11:07.390Z,955.34
2018-04-22T05:12:07.382Z,955.33
2018-04-22T05:13:07.374Z,955.34
2018-04-22T05:14:07.362Z,955.33
2018-04-22T05:15:07.355Z,955.34
2018-04-22T05:16:07.381Z,955.31
2018-04-22T05:17:07.337Z,955.24
2018-04-22T05:18:07.330Z,955.29
2018-04-22T05:19:07.321Z,955.29
2018-04-22T05:20:07.312Z,955.27
2018-04-22T05:21:07.303Z,955.27
2018-04-22T05:22:07.328Z,955.28
2018-04-22T05:23:07.287Z,955.29
2018-04-22T05:24:07.278Z,955.29
2018-04-22T05:25:07.270Z,955.33
2018-04-22T05:26:07.261Z,955.3
2018-04-22T05:27:07.255Z,955.29
2018-04-22T05:28:07.244Z,955.33
2018-04-22T05:29:07.236Z,955.3
2018-04-22T05:30:07.227Z,955.32
2018-04-22T05:31:07.224Z,955.33
2018-04-22T05:32:07.212Z,955.36
2018-04-22T05:33:07.202Z,955.34
2018-04-22T05:34:07.197Z,955.36
2018-04-22T05:35:07.186Z,955.35
2018-04-22T05:36:07.179Z,955.34
2018-04-22T05:37:07.169Z,955.31
2018-04-22T05:38:07.161Z,955.32
2018-04-22T05:39:07.154Z,955.32
2018-04-22T05:40:07.369Z,955.33
2018-04-22T05:41:07.141Z,955.31
2018-04-22T05:42:07.130Z,955.32
2018-04-22T05:43:07.123Z,955.33
2018-04-22T05:44:07.114Z,955.33
2018-04-22T05:45:07.107Z,955.32
2018-04-22T05:46:07.099Z,955.35
2018-04-22T05:47:07.091Z,955.32
2018-04-22T05:48:07.083Z,955.34
2018-04-22T05:49:07.075Z,955.28
2018-04-22T05:50:07.070Z,955.3
2018-04-22T05:51:07.281Z,955.31
2018-04-22T05:52:07.053Z,955.31
2018-04-22T05:53:07.045Z,955.31
2018-04-22T05:54:07.039Z,955.32
2018-04-22T05:55:07.035Z,955.31
2018-04-22T05:56:07.027Z,955.3
2018-04-22T05:57:07.026Z,955.3
2018-04-22T05:58:07.010Z,955.31
2018-04-22T05:59:07.004Z,955.27
2018-04-22T06:00:06.994Z,955.3
2018-04-22T06:01:06.988Z,955.28
2018-04-22T06:02:06.980Z,955.27
2018-04-22T06:03:06.974Z,955.26
2018-04-22T06:04:06.968Z,955.3
2018-04-22T06:05:06.961Z,955.25
2018-04-22T06:06:06.965Z,955.31
2018-04-22T06:07:06.972Z,955.28
2018-04-22T06:08:06.939Z,955.26
2018-04-22T06:09:06.932Z,955.24
2018-04-22T06:10:06.928Z,955.29
2018-04-22T06:11:06.919Z,955.27
2018-04-22T06:12:06.913Z,955.26
2018-04-22T06:13:06.905Z,955.27
2018-04-22T06:14:06.898Z,955.22
2018-04-22T06:15:06.897Z,955.19
2018-04-22T06:16:06.888Z,955.2
2018-04-22T06:17:06.880Z,955.24
2018-04-22T06:18:06.871Z,955.17
2018-04-22T06:19:06.867Z,955.17
2018-04-22T06:20:06.861Z,955.22
2018-04-22T06:21:06.853Z,955.19
2018-04-22T06:22:06.864Z,955.19
2018-04-22T06:23:06.842Z,955.19
2018-04-22T06:24:06.834Z,955.19
2018-04-22T06:25:06.828Z,955.23
2018-04-22T06:26:06.821Z,955.21
2018-04-22T06:27:06.914Z,955.21
2018-04-22T06:28:06.809Z,955.22
2018-04-22T06:29:06.802Z,955.19
2018-04-22T06:30:06.798Z,955.19
2018-04-22T06:31:06.792Z,955.24
2018-04-22T06:32:06.785Z,955.18
2018-04-22T06:33:06.778Z,955.22
2018-04-22T06:34:06.772Z,955.2
2018-04-22T06:35:06.767Z,955.23
2018-04-22T06:36:06.761Z,955.22
2018-04-22T06:37:06.757Z,955.2
2018-04-22T06:38:06.751Z,955.19
2018-04-22T06:39:06.745Z,955.18
2018-04-22T06:40:06.739Z,955.15
2018-04-22T06:41:06.734Z,955.16
2018-04-22T06:42:06.727Z,955.14
2018-04-22T06:43:06.720Z,955.16
2018-04-22T06:44:06.715Z,955.19
2018-04-22T06:45:06.711Z,955.15
2018-04-22T06:46:06.716Z,955.14
2018-04-22T06:47:06.699Z,955.11
2018-04-22T06:48:06.695Z,955.12
2018-04-22T06:49:06.690Z,955.13
2018-04-22T06:50:06.699Z,955.18
2018-04-22T06:51:06.682Z,955.12
2018-04-22T06:52:06.677Z,955.13
2018-04-22T06:53:06.674Z,955.1
2018-04-22T06:54:06.671Z,955.13
2018-04-22T06:55:06.668Z,955.13
2018-04-22T06:56:06.665Z,955.15
2018-04-22T06:57:06.662Z,955.19
2018-04-22T06:58:06.660Z,955.15
2018-04-22T06:59:06.657Z,955.17
2018-04-22T07:00:06.657Z,955.17
2018-04-22T07:01:06.656Z,955.17
2018-04-22T07:02:06.655Z,955.14
2018-04-22T07:03:06.653Z,955.13
2018-04-22T07:04:06.653Z,955.16
2018-04-22T07:05:06.658Z,955.2
2018-04-22T07:06:06.655Z,955.18
2018-04-22T07:07:06.653Z,955.19
2018-04-22T07:08:06.668Z,955.2
2018-04-22T07:09:06.661Z,955.19
2018-04-22T07:10:06.659Z,955.25
2018-04-22T07:11:06.658Z,955.24
2018-04-22T07:12:06.660Z,955.3
2018-04-22T07:13:06.665Z,955.4
2018-04-22T07:14:06.662Z,955.31
2018-04-22T07:15:06.669Z,955.28
2018-04-22T07:16:06.670Z,955.33
2018-04-22T07:17:06.672Z,955.45
2018-04-22T07:18:06.678Z,955.48
2018-04-22T07:19:06.684Z,955.5
2018-04-22T07:20:06.686Z,955.65
2018-04-22T07:21:06.682Z,955.75
2018-04-22T07:22:06.686Z,955.86
2018-04-22T07:23:06.689Z,956.08
2018-04-22T07:24:06.754Z,956.02
2018-04-22T07:25:06.698Z,955.45
2018-04-22T07:26:06.706Z,955.04
2018-04-22T07:27:06.714Z,954.99
2018-04-22T07:28:06.710Z,955.02
2018-04-22T07:29:06.715Z,955.02
2018-04-22T07:30:06.718Z,955
2018-04-22T07:31:06.719Z,954.99
2018-04-22T07:32:06.779Z,954.99
2018-04-22T07:33:06.726Z,954.99
2018-04-22T07:34:06.729Z,955
2018-04-22T07:35:06.731Z,954.98
2018-04-22T07:36:06.733Z,955.02
2018-04-22T07:37:06.738Z,954.96
2018-04-22T07:38:06.742Z,955.03
2018-04-22T07:39:06.744Z,954.99
2018-04-22T07:40:06.748Z,955.03
2018-04-22T07:41:06.752Z,955.02
2018-04-22T07:42:06.753Z,955.03
2018-04-22T07:43:06.757Z,955.01
2018-04-22T07:44:06.762Z,954.99
2018-04-22T07:45:06.763Z,955.03
2018-04-22T07:46:06.764Z,954.95
2018-04-22T07:47:06.769Z,954.97
2018-04-22T07:48:06.769Z,954.93
2018-04-22T07:49:06.777Z,954.97
2018-04-22T07:50:06.775Z,954.93
2018-04-22T07:51:06.776Z,954.94
2018-04-22T07:52:06.779Z,954.92
2018-04-22T07:53:06.786Z,954.91
2018-04-22T07:54:06.783Z,954.9
2018-04-22T07:55:06.785Z,954.95
2018-04-22T07:56:06.786Z,954.91
2018-04-22T07:57:06.787Z,954.93
2018-04-22T07:58:06.791Z,954.89
2018-04-22T07:59:06.794Z,954.89
2018-04-22T08:00:06.793Z,954.93
2018-04-22T08:01:06.792Z,954.91
2018-04-22T08:02:06.800Z,954.92
2018-04-22T08:03:06.796Z,954.92
2018-04-22T08:04:06.797Z,954.88
2018-04-22T08:05:06.799Z,954.93
2018-04-22T08:06:06.800Z,954.93
2018-04-22T08:07:06.801Z,954.93
2018-04-22T08:08:06.802Z,954.93
2018-04-22T08:09:06.826Z,954.95
2018-04-22T08:10:06.831Z,954.92
2018-04-22T08:11:06.831Z,954.96
2018-04-22T08:12:06.806Z,954.97
2018-04-22T08:13:06.806Z,954.97
2018-04-22T08:14:06.807Z,954.95
2018-04-22T08:15:06.808Z,954.96
2018-04-22T08:16:06.808Z,954.94
2018-04-22T08:17:06.809Z,954.95
2018-04-22T08:18:06.811Z,954.91
2018-04-22T08:19:06.810Z,954.94
2018-04-22T08:20:06.817Z,954.94
2018-04-22T08:21:06.813Z,954.94
2018-04-22T08:22:06.814Z,954.94
2018-04-22T08:23:06.813Z,954.96
2018-04-22T08:24:06.814Z,954.91
2018-04-22T08:25:06.815Z,954.93
2018-04-22T08:26:06.814Z,954.93
2018-04-22T08:27:06.817Z,954.91
2018-04-22T08:28:06.817Z,954.91
2018-04-22T08:29:06.816Z,954.89
2018-04-22T08:30:06.825Z,954.9
2018-04-22T08:31:06.824Z,954.9
2018-04-22T08:32:06.819Z,954.92
2018-04-22T08:33:06.819Z,954.89
2018-04-22T08:34:06.821Z,954.89
2018-04-22T08:35:06.823Z,954.95
2018-04-22T08:36:06.821Z,954.95
2018-04-22T08:37:06.822Z,954.94
2018-04-22T08:38:06.824Z,954.9
2018-04-22T08:39:06.821Z,954.95
2018-04-22T08:40:06.822Z,954.92
2018-04-22T08:41:06.821Z,954.9
2018-04-22T08:42:06.823Z,954.92
2018-04-22T08:43:06.822Z,954.95
2018-04-22T08:44:06.824Z,954.92
2018-04-22T08:45:06.823Z,954.91
2018-04-22T08:46:06.824Z,954.94
2018-04-22T08:47:06.825Z,954.99
2018-04-22T08:48:06.825Z,954.94
2018-04-22T08:49:06.825Z,954.96
2018-04-22T08:50:06.829Z,954.89
2018-04-22T08:51:06.831Z,954.91
2018-04-22T08:52:06.826Z,954.9
2018-04-22T08:53:06.826Z,954.91
2018-04-22T08:54:06.826Z,954.91
2018-04-22T08:55:06.827Z,954.87
2018-04-22T08:56:06.826Z,954.86
2018-04-22T08:57:06.827Z,954.85
2018-04-22T08:58:06.828Z,954.86
2018-04-22T08:59:06.829Z,954.85
2018-04-22T09:00:06.830Z,954.86
2018-04-22T09:01:06.831Z,954.85
2018-04-22T09:02:06.851Z,954.84
2018-04-22T09:03:06.832Z,954.85
2018-04-22T09:04:06.831Z,954.84
2018-04-22T09:05:06.837Z,954.86
2018-04-22T09:06:06.833Z,954.87
2018-04-22T09:07:06.833Z,954.84
2018-04-22T09:08:06.833Z,954.86
2018-04-22T09:09:06.834Z,954.81
2018-04-22T09:10:06.834Z,954.82
2018-04-22T09:11:06.833Z,954.77
2018-04-22T09:12:06.841Z,954.77
2018-04-22T09:13:06.835Z,954.76
2018-04-22T09:14:06.833Z,954.78
2018-04-22T09:15:06.837Z,954.77
2018-04-22T09:16:06.836Z,954.76
2018-04-22T09:17:06.836Z,954.74
2018-04-22T09:18:06.836Z,954.71
2018-04-22T09:19:06.838Z,954.72
2018-04-22T09:20:06.844Z,954.71
2018-04-22T09:21:06.838Z,954.74
2018-04-22T09:22:06.839Z,954.66
2018-04-22T09:23:06.841Z,954.71
2018-04-22T09:24:06.840Z,954.7
2018-04-22T09:25:06.841Z,954.76
2018-04-22T09:26:06.842Z,954.73
2018-04-22T09:27:06.843Z,954.75
2018-04-22T09:28:06.841Z,954.71
2018-04-22T09:29:06.843Z,954.73
2018-04-22T09:30:06.843Z,954.66
2018-04-22T09:31:06.846Z,954.67
2018-04-22T09:32:06.853Z,954.69
2018-04-22T09:33:06.854Z,954.7
2018-04-22T09:34:06.847Z,954.67
2018-04-22T09:35:06.857Z,954.63
2018-04-22T09:36:06.848Z,954.61
2018-04-22T09:37:06.849Z,954.62
2018-04-22T09:38:06.849Z,954.64
2018-04-22T09:39:06.848Z,954.65
2018-04-22T09:40:06.851Z,954.67
2018-04-22T09:41:06.850Z,954.62
2018-04-22T09:42:06.852Z,954.59
2018-04-22T09:43:06.876Z,954.59
2018-04-22T09:44:06.855Z,954.63
2018-04-22T09:45:06.871Z,954.53
2018-04-22T09:46:06.855Z,954.57
2018-04-22T09:47:06.855Z,954.63
2018-04-22T09:48:06.855Z,954.6
2018-04-22T09:49:06.862Z,954.6
2018-04-22T09:50:06.860Z,954.63
2018-04-22T09:51:06.858Z,954.62
2018-04-22T09:52:06.861Z,954.59
2018-04-22T09:53:06.860Z,954.58
2018-04-22T09:54:06.860Z,954.57
2018-04-22T09:55:06.865Z,954.62
2018-04-22T09:56:06.863Z,954.58
2018-04-22T09:57:06.863Z,954.53
2018-04-22T09:58:06.863Z,954.53
2018-04-22T09:59:06.863Z,954.54
2018-04-22T10:00:06.866Z,954.51
2018-04-22T10:01:06.866Z,954.54
2018-04-22T10:02:06.869Z,954.48
2018-04-22T10:03:06.868Z,954.47
2018-04-22T10:04:06.869Z,954.43
2018-04-22T10:05:06.874Z,954.49
2018-04-22T10:06:06.873Z,954.5
2018-04-22T10:07:06.872Z,954.46
2018-04-22T10:08:06.873Z,954.46
2018-04-22T10:09:06.873Z,954.49
2018-04-22T10:10:06.880Z,954.46
2018-04-22T10:11:06.875Z,954.45
2018-04-22T10:12:06.878Z,954.39
2018-04-22T10:13:06.887Z,954.45
2018-04-22T10:14:06.880Z,954.43
2018-04-22T10:15:06.880Z,954.41
2018-04-22T10:16:06.879Z,954.41
2018-04-22T10:17:06.880Z,954.36
2018-04-22T10:18:06.883Z,954.38
2018-04-22T10:19:06.882Z,954.36
2018-04-22T10:20:06.883Z,954.34
2018-04-22T10:21:06.887Z,954.36
2018-04-22T10:22:06.885Z,954.33
2018-04-22T10:23:06.886Z,954.36
2018-04-22T10:24:06.888Z,954.33
2018-04-22T10:25:06.889Z,954.35
2018-04-22T10:26:06.890Z,954.31
2018-04-22T10:27:06.891Z,954.33
2018-04-22T10:28:06.896Z,954.28
2018-04-22T10:29:06.893Z,954.28
2018-04-22T10:30:06.894Z,954.28
2018-04-22T10:31:06.896Z,954.27
2018-04-22T10:32:06.897Z,954.24
2018-04-22T10:33:06.897Z,954.24
2018-04-22T10:34:06.897Z,954.18
2018-04-22T10:35:06.901Z,954.21
2018-04-22T10:36:06.955Z,954.18
2018-04-22T10:37:06.901Z,954.19
2018-04-22T10:38:06.918Z,954.18
2018-04-22T10:39:06.913Z,954.19
2018-04-22T10:40:06.923Z,954.17
2018-04-22T10:41:06.907Z,954.15
2018-04-22T10:42:06.906Z,954.11
2018-04-22T10:43:06.908Z,954.09
2018-04-22T10:44:06.908Z,954.1
2018-04-22T10:45:06.910Z,954.08
2018-04-22T10:46:06.910Z,954.07
2018-04-22T10:47:06.912Z,954.07
2018-04-22T10:48:06.914Z,954.09
2018-04-22T10:49:06.917Z,954.13
2018-04-22T10:50:06.914Z,954.09
2018-04-22T10:51:06.915Z,954.08
2018-04-22T10:52:06.921Z,954.07
2018-04-22T10:53:06.919Z,954.02
2018-04-22T10:54:06.921Z,954.05
2018-04-22T10:55:06.921Z,954.09
2018-04-22T10:56:06.921Z,954.06
2018-04-22T10:57:06.923Z,954.08
2018-04-22T10:58:07.010Z,954.03
2018-04-22T10:59:06.945Z,954
2018-04-22T11:00:06.926Z,953.98
2018-04-22T11:01:06.952Z,954.03
2018-04-22T11:02:06.991Z,954.03
2018-04-22T11:03:06.949Z,953.99
2018-04-22T11:04:06.954Z,953.98
2018-04-22T11:05:07.001Z,953.97
2018-04-22T11:06:06.949Z,953.98
2018-04-22T11:07:06.934Z,953.96
2018-04-22T11:08:06.936Z,953.98
2018-04-22T11:09:06.937Z,953.93
2018-04-22T11:10:06.939Z,953.96
2018-04-22T11:11:06.942Z,953.92
2018-04-22T11:12:06.946Z,953.9
2018-04-22T11:13:06.942Z,953.84
2018-04-22T11:14:06.943Z,953.86
2018-04-22T11:15:06.946Z,953.79
2018-04-22T11:16:06.945Z,953.81
2018-04-22T11:17:06.948Z,953.83
2018-04-22T11:18:06.948Z,953.85
2018-04-22T11:19:06.961Z,953.83
2018-04-22T11:20:06.951Z,953.83
2018-04-22T11:21:06.953Z,953.84
2018-04-22T11:22:06.959Z,953.85
2018-04-22T11:23:06.954Z,953.84
2018-04-22T11:24:06.961Z,953.82
2018-04-22T11:25:06.958Z,953.82
2018-04-22T11:26:06.974Z,953.81
2018-04-22T11:27:06.965Z,953.83
2018-04-22T11:28:06.963Z,953.8
2018-04-22T11:29:06.973Z,953.79
2018-04-22T11:30:06.964Z,953.81
2018-04-22T11:31:06.966Z,953.81
2018-04-22T11:32:06.977Z,953.78
2018-04-22T11:33:07.013Z,953.79
2018-04-22T11:34:06.972Z,953.79
2018-04-22T11:35:06.973Z,953.77
2018-04-22T11:36:06.973Z,953.77
2018-04-22T11:37:06.977Z,953.73
2018-04-22T11:38:06.977Z,953.74
2018-04-22T11:39:06.980Z,953.7
2018-04-22T11:40:06.980Z,953.72
2018-04-22T11:41:06.981Z,953.71
2018-04-22T11:42:06.985Z,953.71
2018-04-22T11:43:07.005Z,953.72
2018-04-22T11:44:06.985Z,953.66
2018-04-22T11:45:06.987Z,953.63
2018-04-22T11:46:06.988Z,953.69
2018-04-22T11:47:06.990Z,953.71
2018-04-22T11:48:06.992Z,953.7
2018-04-22T11:49:06.992Z,953.68
2018-04-22T11:50:06.994Z,953.68
2018-04-22T11:51:06.994Z,953.65
2018-04-22T11:52:06.997Z,953.66
2018-04-22T11:53:07.000Z,953.67
2018-04-22T11:54:07.000Z,953.62
2018-04-22T11:55:07.000Z,953.65
2018-04-22T11:56:07.003Z,953.64
2018-04-22T11:57:07.004Z,953.59
2018-04-22T11:58:07.007Z,953.65
2018-04-22T11:59:07.007Z,953.62
2018-04-22T12:00:07.027Z,953.62
2018-04-22T12:01:07.011Z,953.65
2018-04-22T12:02:07.010Z,953.63
2018-04-22T12:03:07.013Z,953.65
2018-04-22T12:04:07.014Z,953.6
2018-04-22T12:05:07.027Z,953.65
2018-04-22T12:06:07.017Z,953.57
2018-04-22T12:07:07.017Z,953.58
2018-04-22T12:08:07.019Z,953.6
2018-04-22T12:09:07.021Z,953.61
2018-04-22T12:10:07.021Z,953.59
2018-04-22T12:11:07.029Z,953.6
2018-04-22T12:12:07.025Z,953.56
2018-04-22T12:13:07.032Z,953.57
2018-04-22T12:14:07.045Z,953.54
2018-04-22T12:15:07.030Z,953.51
2018-04-22T12:16:07.031Z,953.55
2018-04-22T12:17:07.037Z,953.52
2018-04-22T12:18:07.074Z,953.54
2018-04-22T12:19:07.039Z,953.56
2018-04-22T12:20:07.036Z,953.53
2018-04-22T12:21:07.038Z,953.49
2018-04-22T12:22:07.061Z,953.53
2018-04-22T12:23:07.041Z,953.51
2018-04-22T12:24:07.043Z,953.48
2018-04-22T12:25:07.047Z,953.47
2018-04-22T12:26:07.045Z,953.47
2018-04-22T12:27:07.049Z,953.42
2018-04-22T12:28:07.056Z,953.41
2018-04-22T12:29:07.053Z,953.41
2018-04-22T12:30:07.056Z,953.42